Time;durP1;ratioP1;P1;durP2;ratioP2;P2;SDS_P1;SDS_P2;PMS_P1;PMS_P2;Temp;Humidity;BMP_temperature;BMP_pressure;BME280_temperature;BME280_humidity;BME280_pressure;Samples;Min_cycle;Max_cycle;Signal;HPM_P1;HPM_P2
2024/01/21 00:00:12;;;;;;;;;;;;;;;1.20;96.47;100988.75;3157381;28;19928;-68
2024/01/21 00:01:42;;;;;;;;;;;;;;;1.19;96.29;100987.91;3156845;28;20441;-68
2024/01/21 00:03:14;;;;;;;;;;;;;;;1.20;96.24;100993.91;3157502;28;19928;-68
2024/01/21 00:04:44;;;;;;;;;;;;;;;1.20;96.14;100992.19;3157574;28;19981;-70
2024/01/21 00:06:16;;;;;;;;;;;;;;;1.19;96.10;100993.03;3157335;28;20384;-69
2024/01/21 00:07:46;;;;;;;;;;;;;;;1.20;96.08;100987.06;3152864;28;20033;-70
2024/01/21 00:09:18;;;;;;;;;;;;;;;1.18;95.82;100990.44;3149175;28;19935;-69
2024/01/21 00:10:48;;;;;;;;;;;;;;;1.18;95.95;100987.88;3157434;28;20413;-74
2024/01/21 00:12:21;;;;;;;;;;;;;;;1.20;95.87;100993.91;3157393;28;19946;-75
2024/01/21 00:13:51;;;;;;;;;;;;;;;1.20;95.74;100988.75;3157322;28;19928;-75
2024/01/21 00:15:24;;;;;;;;;;;;;;;1.21;95.74;100985.34;3157046;28;20307;-70
2024/01/21 00:16:55;;;;;;;;;;;;;;;1.20;95.59;100992.19;3157498;28;19931;-70
2024/01/21 00:18:27;;;;;;;;;;;;;;;1.20;95.66;100992.19;3157215;28;20400;-70
2024/01/21 00:19:57;;;;;;;;;;;;;;;1.22;95.56;100989.66;3157239;28;19924;-70
2024/01/21 00:21:29;;;;;;;;;;;;;;;1.23;95.38;100992.22;3156952;28;19932;-70
2024/01/21 00:22:59;;;;;;;;;;;;;;;1.21;95.10;100993.91;3157030;28;19932;-70
2024/01/21 00:24:31;;;;;;;;;;;;;;;1.21;95.12;100993.91;3157297;28;19947;-70
2024/01/21 00:26:01;;;;;;;;;;;;;;;1.22;95.08;100999.91;3157012;28;19931;-70
2024/01/21 00:27:33;;;;;;;;;;;;;;;1.21;94.98;100998.19;3157055;28;19924;-70
2024/01/21 00:29:04;;;;;;;;;;;;;;;1.21;94.92;100995.63;3157477;28;20322;-70
2024/01/21 00:30:36;;;;;;;;;;;;;;;1.22;94.71;101002.47;3157093;28;20010;-70
2024/01/21 00:32:08;;;;;;;;;;;;;;;1.21;94.63;101004.16;3156826;28;20347;-70
2024/01/21 00:33:38;;;;;;;;;;;;;;;1.20;94.55;101006.72;3157305;28;19928;-69
2024/01/21 00:35:11;;;;;;;;;;;;;;;1.21;94.68;101005.88;3157313;28;19935;-69
2024/01/21 00:36:42;;;;;;;;;;;;;;;1.22;94.45;101008.47;3157435;28;20031;-70
2024/01/21 00:38:13;;;;;;;;;;;;;;;1.23;94.36;101007.63;3157370;28;19930;-70
2024/01/21 00:39:44;;;;;;;;;;;;;;;1.25;94.20;101012.78;3156824;28;20443;-70
2024/01/21 00:41:16;;;;;;;;;;;;;;;1.26;94.24;101010.22;3157253;28;19954;-70
2024/01/21 00:42:46;;;;;;;;;;;;;;;1.29;94.13;101011.97;3157456;28;19924;-71
2024/01/21 00:44:18;;;;;;;;;;;;;;;1.31;94.05;101012.84;3156907;28;19931;-71
2024/01/21 00:45:51;;;;;;;;;;;;;;;1.33;93.94;101021.41;3156976;28;19932;-70
2024/01/21 00:47:23;;;;;;;;;;;;;;;1.34;93.99;101018.03;3156973;28;20007;-70
2024/01/21 00:48:53;;;;;;;;;;;;;;;1.35;93.93;101019.75;3156414;28;20356;-71
2024/01/21 00:50:26;;;;;;;;;;;;;;;1.35;93.86;101019.75;3155275;28;19928;-70
2024/01/21 00:51:57;;;;;;;;;;;;;;;1.36;93.83;101024.03;3156852;28;20308;-70
2024/01/21 00:53:28;;;;;;;;;;;;;;;1.38;93.86;101024.91;3155472;28;19932;-71
2024/01/21 00:54:59;;;;;;;;;;;;;;;1.39;93.78;101024.09;3155284;28;20490;-72
2024/01/21 00:56:30;;;;;;;;;;;;;;;1.43;93.71;101027.53;3150279;28;19940;-72
2024/01/21 00:58:01;;;;;;;;;;;;;;;1.44;93.66;101024.13;3150074;28;19936;-72
2024/01/21 00:59:32;;;;;;;;;;;;;;;1.44;93.67;101024.13;3157113;28;20546;-72
2024/01/21 01:01:04;;;;;;;;;;;;;;;1.45;93.64;101026.72;3156709;28;19939;-72
2024/01/21 01:02:36;;;;;;;;;;;;;;;1.45;93.70;101026.72;3156925;28;20044;-72
2024/01/21 01:04:07;;;;;;;;;;;;;;;1.45;93.66;101021.59;3156717;28;19924;-71
2024/01/21 01:05:38;;;;;;;;;;;;;;;1.47;93.59;101024.16;3156971;28;19928;-71
2024/01/21 01:07:09;;;;;;;;;;;;;;;1.49;93.65;101027.63;3157175;28;20441;-72
2024/01/21 01:08:40;;;;;;;;;;;;;;;1.49;93.58;101023.34;3157019;28;19928;-71
2024/01/21 01:10:11;;;;;;;;;;;;;;;1.50;93.61;101025.03;3157244;28;19931;-71
2024/01/21 01:11:42;;;;;;;;;;;;;;;1.51;93.50;101020.78;3159335;28;20389;-70
2024/01/21 01:13:13;;;;;;;;;;;;;;;1.52;93.46;101027.66;3159294;28;20361;-70
2024/01/21 01:14:44;;;;;;;;;;;;;;;1.53;93.51;101030.22;3159428;28;19928;-71
2024/01/21 01:16:16;;;;;;;;;;;;;;;1.54;93.43;101024.25;3159397;28;20345;-73
2024/01/21 01:17:48;;;;;;;;;;;;;;;1.54;93.32;101028.53;3159229;28;20592;-75
2024/01/21 01:19:19;;;;;;;;;;;;;;;1.51;93.25;101024.22;3158994;28;19934;-73
2024/01/21 01:20:51;;;;;;;;;;;;;;;1.51;93.28;101028.47;3158883;28;19928;-71
2024/01/21 01:22:21;;;;;;;;;;;;;;;1.52;93.34;101031.06;3159333;28;19924;-73
2024/01/21 01:23:53;;;;;;;;;;;;;;;1.51;93.35;101024.22;3159220;28;19930;-74
2024/01/21 01:25:26;;;;;;;;;;;;;;;1.52;93.37;101030.22;3159121;28;19928;-74
2024/01/21 01:26:57;;;;;;;;;;;;;;;1.51;93.29;101023.34;3159292;28;19939;-74
2024/01/21 01:28:28;;;;;;;;;;;;;;;1.50;93.17;101030.19;3159059;28;20389;-71
2024/01/21 01:29:59;;;;;;;;;;;;;;;1.51;93.15;101029.34;3158909;28;19939;-72
2024/01/21 01:31:31;;;;;;;;;;;;;;;1.49;93.22;101023.34;3158497;28;20333;-70
2024/01/21 01:33:03;;;;;;;;;;;;;;;1.49;93.21;101025.91;3159247;28;19986;-70
2024/01/21 01:34:34;;;;;;;;;;;;;;;1.17;93.22;100970.78;3159039;28;19959;-69
2024/01/21 01:36:05;;;;;;;;;;;;;;;1.50;93.15;101025.03;3158942;28;19924;-70
2024/01/21 01:37:37;;;;;;;;;;;;;;;1.49;93.09;101023.34;3158704;28;19934;-70
2024/01/21 01:39:07;;;;;;;;;;;;;;;1.50;93.17;101025.03;3158943;28;19931;-70
2024/01/21 01:40:39;;;;;;;;;;;;;;;1.50;93.12;101022.47;3158922;28;20340;-71
2024/01/21 01:42:09;;;;;;;;;;;;;;;1.50;93.04;101019.91;3158513;28;19935;-71
2024/01/21 01:43:41;;;;;;;;;;;;;;;1.52;93.04;101022.50;3159123;28;19928;-72
2024/01/21 01:45:11;;;;;;;;;;;;;;;1.50;92.96;101025.03;3157455;28;19928;-72
2024/01/21 01:46:44;;;;;;;;;;;;;;;1.47;93.05;101027.56;3157506;28;19930;-71
2024/01/21 01:48:16;;;;;;;;;;;;;;;1.45;93.15;101024.16;3158812;28;19924;-72
2024/01/21 01:49:47;;;;;;;;;;;;;;;1.43;93.09;101027.53;3155973;28;19931;-73
2024/01/21 01:51:19;;;;;;;;;;;;;;;1.40;93.18;101027.50;3159111;28;19932;-69
2024/01/21 01:52:52;;;;;;;;;;;;;;;1.38;93.19;101021.47;3158873;28;19928;-68
2024/01/21 01:54:23;;;;;;;;;;;;;;;1.36;93.30;101027.47;3158535;28;19936;-68
2024/01/21 01:55:54;;;;;;;;;;;;;;;1.36;93.27;101035.16;3150087;28;19928;-69
2024/01/21 01:57:25;;;;;;;;;;;;;;;1.36;93.29;101034.28;3151679;28;19925;-69
2024/01/21 01:59:01;;;;;;;;;;;;;;;1.34;93.24;101033.44;3159065;28;19924;-69
2024/01/21 02:00:32;;;;;;;;;;;;;;;1.34;93.23;101030.84;3158493;28;19928;-69
2024/01/21 02:02:06;;;;;;;;;;;;;;;1.33;93.24;101036.81;3158617;28;20300;-69
2024/01/21 02:03:36;;;;;;;;;;;;;;;1.31;93.13;101036.81;3158655;28;19928;-68
2024/01/21 02:05:08;;;;;;;;;;;;;;;1.28;93.21;101038.50;3158879;28;19924;-69
2024/01/21 02:06:39;;;;;;;;;;;;;;;1.26;93.25;101035.03;3158219;28;19928;-69
2024/01/21 02:08:10;;;;;;;;;;;;;;;1.26;93.36;101042.72;3158902;28;19938;-69
2024/01/21 02:09:41;;;;;;;;;;;;;;;1.27;93.28;101047.00;3158534;28;19995;-69
2024/01/21 02:11:12;;;;;;;;;;;;;;;1.27;93.28;101044.44;3158477;28;19927;-70
2024/01/21 02:12:43;;;;;;;;;;;;;;;1.26;93.28;101043.59;3158907;28;19940;-69
2024/01/21 02:14:15;;;;;;;;;;;;;;;1.27;93.13;101039.31;3158359;28;19935;-70
2024/01/21 02:15:45;;;;;;;;;;;;;;;1.27;93.09;101036.75;3158609;28;19931;-69
2024/01/21 02:17:18;;;;;;;;;;;;;;;1.28;93.07;101041.06;3158557;28;19978;-70
2024/01/21 02:18:49;;;;;;;;;;;;;;;1.28;93.08;101044.47;3158542;28;20651;-68
2024/01/21 02:20:21;;;;;;;;;;;;;;;1.28;93.01;101046.19;3158331;28;19935;-70
2024/01/21 02:21:51;;;;;;;;;;;;;;;1.29;92.98;101051.31;3157478;28;19924;-69
2024/01/21 02:23:24;;;;;;;;;;;;;;;1.29;92.94;101045.31;3158230;28;20420;-71
2024/01/21 02:24:55;;;;;;;;;;;;;;;1.31;92.97;101047.06;3158963;28;19931;-70
2024/01/21 02:26:26;;;;;;;;;;;;;;;1.30;92.74;101047.03;3158154;28;19924;-70
2024/01/21 02:27:57;;;;;;;;;;;;;;;1.29;92.80;101045.31;3157113;28;19928;-71
2024/01/21 02:29:28;;;;;;;;;;;;;;;1.30;92.88;101047.03;3152507;28;19928;-70
2024/01/21 02:30:59;;;;;;;;;;;;;;;1.29;92.84;101045.31;3155131;28;19928;-69
2024/01/21 02:32:31;;;;;;;;;;;;;;;1.29;92.90;101045.31;3158344;28;19935;-69
2024/01/21 02:34:01;;;;;;;;;;;;;;;1.29;92.80;101048.75;3158309;28;19931;-69
2024/01/21 02:35:33;;;;;;;;;;;;;;;1.30;92.75;101044.47;3158187;28;19927;-69
2024/01/21 02:37:03;;;;;;;;;;;;;;;1.29;92.71;101050.47;3158009;28;19928;-70
2024/01/21 02:38:36;;;;;;;;;;;;;;;1.29;92.78;101042.75;3153188;28;19924;-70
2024/01/21 02:40:07;;;;;;;;;;;;;;;1.29;92.67;101050.47;3149964;28;19932;-69
2024/01/21 02:41:39;;;;;;;;;;;;;;;1.29;92.76;101051.31;3152311;28;19934;-69
2024/01/21 02:43:09;;;;;;;;;;;;;;;1.28;92.68;101048.75;3157988;28;19935;-64
2024/01/21 02:44:41;;;;;;;;;;;;;;;1.28;92.64;101048.75;3158155;28;19924;-64
2024/01/21 02:46:12;;;;;;;;;;;;;;;1.27;92.84;101049.56;3157296;28;19924;-64
2024/01/21 02:47:43;;;;;;;;;;;;;;;1.27;92.57;101045.31;3158318;28;20387;-65
2024/01/21 02:49:14;;;;;;;;;;;;;;;1.26;92.65;101043.59;3157965;28;19928;-65
2024/01/21 02:50:45;;;;;;;;;;;;;;;1.26;92.59;101045.28;3158129;28;19924;-64
2024/01/21 02:52:16;;;;;;;;;;;;;;;1.25;92.59;101046.16;3158160;28;19935;-64
2024/01/21 02:53:49;;;;;;;;;;;;;;;1.26;92.56;101053.84;3158076;28;19924;-64
2024/01/21 02:55:19;;;;;;;;;;;;;;;1.25;92.61;101058.97;3156690;28;20325;-64
2024/01/21 02:56:51;;;;;;;;;;;;;;;1.24;92.56;101053.00;3155912;28;19924;-64
2024/01/21 02:58:21;;;;;;;;;;;;;;;1.23;92.48;101060.66;3146925;28;19932;-64
2024/01/21 02:59:53;;;;;;;;;;;;;;;1.22;92.66;101061.50;3157948;28;19979;-65
2024/01/21 03:01:23;;;;;;;;;;;;;;;1.17;92.63;101055.44;3157908;28;19935;-64
2024/01/21 03:02:55;;;;;;;;;;;;;;;1.14;92.78;101054.53;3157850;28;19924;-65
2024/01/21 03:04:26;;;;;;;;;;;;;;;1.11;92.81;101059.63;3157656;28;19924;-65
2024/01/21 03:05:57;;;;;;;;;;;;;;;1.09;92.91;101058.75;3157992;28;19930;-65
2024/01/21 03:07:28;;;;;;;;;;;;;;;1.09;93.07;101063.88;3157984;28;20386;-65
2024/01/21 03:09:01;;;;;;;;;;;;;;;1.06;92.88;101058.69;3158119;28;19935;-65
2024/01/21 03:10:32;;;;;;;;;;;;;;;1.04;93.12;101060.41;3158084;28;19924;-65
2024/01/21 03:12:03;;;;;;;;;;;;;;;1.02;93.07;101059.50;3157839;28;19928;-66
2024/01/21 03:13:35;;;;;;;;;;;;;;;1.00;93.18;101058.63;3157915;28;19928;-66
2024/01/21 03:15:05;;;;;;;;;;;;;;;1.01;93.26;101059.50;3158057;28;19935;-66
2024/01/21 03:16:37;;;;;;;;;;;;;;;1.00;93.17;101055.19;3157643;28;19924;-67
2024/01/21 03:18:07;;;;;;;;;;;;;;;0.99;93.08;101056.06;3157815;28;19932;-65
2024/01/21 03:19:39;;;;;;;;;;;;;;;0.63;93.04;101004.25;3158005;28;19935;-66
2024/01/21 03:21:11;;;;;;;;;;;;;;;0.93;93.24;101056.81;3158097;28;19924;-66
2024/01/21 03:22:41;;;;;;;;;;;;;;;0.89;93.21;101060.19;3158071;28;19924;-66
2024/01/21 03:24:14;;;;;;;;;;;;;;;0.85;93.38;101064.41;3157917;28;19924;-65
2024/01/21 03:25:44;;;;;;;;;;;;;;;0.84;93.44;101060.13;3158136;28;19924;-65
2024/01/21 03:27:16;;;;;;;;;;;;;;;0.85;93.55;101058.41;3155164;28;20308;-65
2024/01/21 03:28:47;;;;;;;;;;;;;;;0.84;93.51;101056.69;3157672;28;19928;-65
2024/01/21 03:30:18;;;;;;;;;;;;;;;0.83;93.57;101060.13;3157848;28;19931;-66
2024/01/21 03:31:49;;;;;;;;;;;;;;;0.80;93.54;101066.06;3157602;28;19928;-70
2024/01/21 03:33:21;;;;;;;;;;;;;;;0.77;93.55;101062.56;3156830;28;19954;-73
2024/01/21 03:34:51;;;;;;;;;;;;;;;0.74;93.67;101065.97;3157688;28;19924;-73
2024/01/21 03:36:23;;;;;;;;;;;;;;;0.75;93.81;101069.38;3157507;28;19932;-71
2024/01/21 03:37:53;;;;;;;;;;;;;;;0.78;93.67;101074.56;3154994;28;20052;-71
2024/01/21 03:39:26;;;;;;;;;;;;;;;0.77;93.67;101073.69;3157737;28;19987;-70
2024/01/21 03:40:57;;;;;;;;;;;;;;;0.77;93.65;101078.81;3157615;28;19924;-70
2024/01/21 03:42:28;;;;;;;;;;;;;;;0.79;93.77;101078.84;3154467;28;19935;-70
2024/01/21 03:43:59;;;;;;;;;;;;;;;0.80;93.63;101075.41;3157616;28;19928;-71
2024/01/21 03:45:30;;;;;;;;;;;;;;;0.79;93.48;101078.84;3156916;28;19935;-72
2024/01/21 03:47:01;;;;;;;;;;;;;;;0.77;93.65;101076.25;3157472;28;19928;-71
2024/01/21 03:48:32;;;;;;;;;;;;;;;0.73;93.60;101074.47;3157770;28;19999;-73
2024/01/21 03:50:03;;;;;;;;;;;;;;;0.70;93.71;101079.56;3157517;28;19959;-71
2024/01/21 03:51:35;;;;;;;;;;;;;;;0.67;93.74;101080.38;3157538;28;20397;-72
2024/01/21 03:53:05;;;;;;;;;;;;;;;0.68;93.92;101083.78;3157404;28;19927;-71
2024/01/21 03:54:38;;;;;;;;;;;;;;;0.67;93.94;101082.94;3157804;28;19924;-72
2024/01/21 03:56:15;;;;;;;;;;;;;;;0.67;93.83;101080.38;3149368;28;20388;-72
2024/01/21 03:57:47;;;;;;;;;;;;;;;0.64;93.88;101085.44;3150636;28;19965;-73
2024/01/21 03:59:18;;;;;;;;;;;;;;;0.65;93.99;101087.19;3157566;28;19932;-74
2024/01/21 04:00:49;;;;;;;;;;;;;;;0.64;93.96;101080.31;3157260;28;20596;-73
2024/01/21 04:02:21;;;;;;;;;;;;;;;0.64;93.95;101082.88;3157333;28;19935;-74
2024/01/21 04:03:52;;;;;;;;;;;;;;;0.63;93.81;101086.28;3157273;28;19928;-73
2024/01/21 04:05:23;;;;;;;;;;;;;;;0.60;93.92;101073.44;3157454;28;20035;-72
2024/01/21 04:06:54;;;;;;;;;;;;;;;0.58;94.05;101079.38;3157743;28;19928;-73
2024/01/21 04:08:25;;;;;;;;;;;;;;;0.57;94.09;101075.09;3157046;28;20342;-74
2024/01/21 04:09:58;;;;;;;;;;;;;;;0.59;94.20;101073.38;3157203;28;19924;-74
2024/01/21 04:11:28;;;;;;;;;;;;;;;0.62;94.14;101071.75;3157031;28;19985;-74
2024/01/21 04:13:00;;;;;;;;;;;;;;;0.64;94.08;101079.47;3157586;28;20039;-74
2024/01/21 04:14:30;;;;;;;;;;;;;;;0.64;94.08;101077.75;3157054;28;20316;-74
2024/01/21 04:16:02;;;;;;;;;;;;;;;0.66;94.05;101077.78;3156864;28;19924;-73
2024/01/21 04:17:33;;;;;;;;;;;;;;;0.66;94.00;101070.97;3157416;28;19924;-73
2024/01/21 04:19:04;;;;;;;;;;;;;;;0.70;93.97;101074.44;3157525;28;19928;-73
2024/01/21 04:20:35;;;;;;;;;;;;;;;0.71;93.97;101077.84;3155615;28;20472;-67
2024/01/21 04:22:06;;;;;;;;;;;;;;;0.72;93.75;101075.31;3155175;28;19928;-67
2024/01/21 04:23:37;;;;;;;;;;;;;;;0.72;93.68;101069.34;3153948;28;20356;-68
2024/01/21 04:25:10;;;;;;;;;;;;;;;0.73;93.66;101077.03;3154474;28;19924;-67
2024/01/21 04:26:40;;;;;;;;;;;;;;;0.73;93.56;101074.47;3157084;28;20409;-68
2024/01/21 04:28:12;;;;;;;;;;;;;;;0.74;93.64;101072.75;3157478;28;19924;-68
2024/01/21 04:29:42;;;;;;;;;;;;;;;0.76;93.61;101078.78;3157342;28;19932;-69
2024/01/21 04:31:14;;;;;;;;;;;;;;;0.79;93.55;101076.28;3157181;28;20009;-68
2024/01/21 04:32:44;;;;;;;;;;;;;;;0.78;93.50;101075.41;3157397;28;19928;-68
2024/01/21 04:34:16;;;;;;;;;;;;;;;0.79;93.48;101072.00;3154204;28;20258;-68
2024/01/21 04:35:46;;;;;;;;;;;;;;;0.79;93.37;101079.69;3156975;28;19951;-68
2024/01/21 04:37:18;;;;;;;;;;;;;;;0.79;93.38;101076.28;3156829;28;19928;-68
2024/01/21 04:38:48;;;;;;;;;;;;;;;0.80;93.21;101080.53;3154992;28;19939;-69
2024/01/21 04:40:21;;;;;;;;;;;;;;;0.78;93.31;101083.09;3157213;28;19924;-68
2024/01/21 04:41:52;;;;;;;;;;;;;;;0.78;93.17;101084.81;3157088;28;19923;-68
2024/01/21 04:43:24;;;;;;;;;;;;;;;0.77;93.22;101085.63;3156952;28;19936;-68
2024/01/21 04:44:55;;;;;;;;;;;;;;;0.76;93.18;101091.59;3158692;28;19939;-67
2024/01/21 04:46:26;;;;;;;;;;;;;;;0.43;93.20;101033.84;3159249;28;19927;-67
2024/01/21 04:47:57;;;;;;;;;;;;;;;0.79;93.11;101094.22;3159575;28;19935;-68
2024/01/21 04:49:28;;;;;;;;;;;;;;;0.78;93.15;101095.06;3159539;28;19951;-69
2024/01/21 04:50:59;;;;;;;;;;;;;;;0.74;93.14;101089.03;3159998;28;19935;-72
2024/01/21 04:52:31;;;;;;;;;;;;;;;0.73;93.18;101096.69;3159951;28;19924;-72
2024/01/21 04:54:01;;;;;;;;;;;;;;;0.73;93.34;101096.69;3159471;28;20310;-71
2024/01/21 04:55:34;;;;;;;;;;;;;;;0.74;93.44;101093.28;3153166;28;19931;-71
2024/01/21 04:57:05;;;;;;;;;;;;;;;0.74;93.38;101091.59;3153259;28;20030;-71
2024/01/21 04:58:37;;;;;;;;;;;;;;;0.76;93.38;101094.19;3156226;28;20415;-72
2024/01/21 05:00:08;;;;;;;;;;;;;;;0.79;93.45;101104.47;3159341;28;19924;-72
2024/01/21 05:01:40;;;;;;;;;;;;;;;0.81;93.36;101095.13;3159222;28;19928;-69
2024/01/21 05:03:10;;;;;;;;;;;;;;;0.82;93.28;101100.25;3159541;28;19947;-68
2024/01/21 05:04:42;;;;;;;;;;;;;;;0.81;93.16;101100.25;3159730;28;19928;-67
2024/01/21 05:06:12;;;;;;;;;;;;;;;0.82;93.21;101100.25;3159602;28;20321;-67
2024/01/21 05:07:44;;;;;;;;;;;;;;;0.83;93.23;101096.88;3159433;28;19936;-73
2024/01/21 05:09:14;;;;;;;;;;;;;;;0.83;93.14;101091.75;3159667;28;19924;-75
2024/01/21 05:10:47;;;;;;;;;;;;;;;0.83;93.20;101098.56;3159295;28;19924;-76
2024/01/21 05:12:18;;;;;;;;;;;;;;;0.81;93.20;101098.53;3159260;28;20357;-74
2024/01/21 05:13:49;;;;;;;;;;;;;;;0.81;93.14;101102.81;3159469;28;19928;-73
2024/01/21 05:15:20;;;;;;;;;;;;;;;0.77;93.19;101098.44;3159499;28;19928;-74
2024/01/21 05:16:52;;;;;;;;;;;;;;;0.74;93.27;101107.00;3159485;28;19983;-75
2024/01/21 05:18:23;;;;;;;;;;;;;;;0.72;93.44;101100.09;3159244;28;19924;-74
2024/01/21 05:19:55;;;;;;;;;;;;;;;0.72;93.40;101110.34;3159424;28;19927;-71
2024/01/21 05:21:25;;;;;;;;;;;;;;;0.68;93.44;101100.06;3158895;28;19924;-72
2024/01/21 05:22:57;;;;;;;;;;;;;;;0.67;93.52;101110.28;3159056;28;20666;-70
2024/01/21 05:24:27;;;;;;;;;;;;;;;0.65;93.52;101109.38;3159379;28;19930;-68
2024/01/21 05:26:00;;;;;;;;;;;;;;;0.65;93.62;101109.38;3156800;28;20320;-70
2024/01/21 05:27:32;;;;;;;;;;;;;;;0.63;93.61;101108.50;3146776;28;19929;-70
2024/01/21 05:29:04;;;;;;;;;;;;;;;0.62;93.57;101110.22;3158798;28;19935;-68
2024/01/21 05:30:36;;;;;;;;;;;;;;;0.61;93.82;101103.34;3154891;28;19924;-70
2024/01/21 05:32:06;;;;;;;;;;;;;;;0.63;93.68;101105.94;3153652;28;19928;-70
2024/01/21 05:33:40;;;;;;;;;;;;;;;0.31;93.57;101049.03;3155921;28;19951;-69
2024/01/21 05:35:10;;;;;;;;;;;;;;;0.64;93.60;101108.53;3157272;28;19967;-74
2024/01/21 05:36:42;;;;;;;;;;;;;;;0.65;93.50;101115.38;3157089;28;19950;-76
2024/01/21 05:38:13;;;;;;;;;;;;;;;0.65;93.46;101111.94;3156901;28;19947;-74
2024/01/21 05:39:44;;;;;;;;;;;;;;;0.64;93.57;101126.47;3157196;28;19928;-77
2024/01/21 05:41:16;;;;;;;;;;;;;;;0.64;93.39;101123.91;3157133;28;19925;-76
2024/01/21 05:42:48;;;;;;;;;;;;;;;0.64;93.44;101120.47;3157010;28;19928;-76
2024/01/21 05:44:18;;;;;;;;;;;;;;;0.64;93.39;101121.34;3158587;28;19928;-75
2024/01/21 05:45:50;;;;;;;;;;;;;;;0.65;93.28;101129.88;3158593;28;19932;-75
2024/01/21 05:47:21;;;;;;;;;;;;;;;0.65;93.28;101133.34;3157010;28;20404;-75
2024/01/21 05:48:52;;;;;;;;;;;;;;;0.66;93.29;101134.19;3157921;28;20405;-71
2024/01/21 05:50:24;;;;;;;;;;;;;;;0.66;93.27;101140.19;3159174;28;19931;-69
2024/01/21 05:51:55;;;;;;;;;;;;;;;0.69;93.29;101134.25;3156982;28;19935;-70
2024/01/21 05:53:26;;;;;;;;;;;;;;;0.71;93.28;101142.84;3155079;28;19938;-70
2024/01/21 05:54:57;;;;;;;;;;;;;;;0.69;93.20;101139.38;3153149;28;19932;-70
2024/01/21 05:56:29;;;;;;;;;;;;;;;0.70;93.09;101140.22;3153169;28;19939;-69
2024/01/21 05:58:01;;;;;;;;;;;;;;;0.70;93.05;101140.22;3155972;28;19928;-69
2024/01/21 05:59:32;;;;;;;;;;;;;;;0.69;93.12;101144.50;3154914;28;20281;-70
2024/01/21 06:01:03;;;;;;;;;;;;;;;0.70;93.14;101142.78;3158687;28;19932;-71
2024/01/21 06:02:34;;;;;;;;;;;;;;;0.69;93.07;101147.06;3157154;28;20298;-73
2024/01/21 06:04:06;;;;;;;;;;;;;;;0.67;93.08;101147.03;3157139;28;20046;-69
2024/01/21 06:05:36;;;;;;;;;;;;;;;0.65;93.11;101151.28;3158911;28;19924;-75
2024/01/21 06:07:08;;;;;;;;;;;;;;;0.64;93.15;101149.53;3158313;28;19924;-67
2024/01/21 06:08:40;;;;;;;;;;;;;;;0.64;92.85;101156.38;3153254;28;19959;-67
2024/01/21 06:10:12;;;;;;;;;;;;;;;0.60;93.27;101147.78;3157809;28;20396;-65
2024/01/21 06:11:44;;;;;;;;;;;;;;;0.59;93.27;101153.75;3155551;28;19928;-65
2024/01/21 06:13:15;;;;;;;;;;;;;;;0.59;93.24;101147.72;3153745;28;19973;-74
2024/01/21 06:14:46;;;;;;;;;;;;;;;0.58;93.37;101148.56;3156425;28;20405;-67
2024/01/21 06:16:17;;;;;;;;;;;;;;;0.57;93.43;101155.41;3155369;28;19940;-68
2024/01/21 06:17:49;;;;;;;;;;;;;;;0.56;93.49;101156.25;3158072;28;20397;-67
2024/01/21 06:19:21;;;;;;;;;;;;;;;0.56;93.49;101153.69;3157139;28;20124;-66
2024/01/21 06:20:51;;;;;;;;;;;;;;;-0.10;93.35;101042.34;3158215;28;19935;-67
2024/01/21 06:22:23;;;;;;;;;;;;;;;0.59;93.46;101152.84;3158642;28;19935;-66
2024/01/21 06:23:53;;;;;;;;;;;;;;;0.62;93.50;101153.78;3157293;28;20293;-68
2024/01/21 06:25:25;;;;;;;;;;;;;;;0.64;93.40;101157.22;3155749;28;19924;-65
2024/01/21 06:26:57;;;;;;;;;;;;;;;0.70;93.32;101161.59;3153539;28;19935;-69
2024/01/21 06:28:29;;;;;;;;;;;;;;;0.73;93.24;101171.03;3155253;28;19971;-69
2024/01/21 06:30:10;;;;;;;;;;;;;;;0.77;93.11;101166.00;3152151;28;19924;-68
2024/01/21 06:31:41;;;;;;;;;;;;;;;0.82;93.04;101166.06;3153642;28;20416;-71
2024/01/21 06:33:12;;;;;;;;;;;;;;;0.83;92.93;101173.81;3150158;28;19932;-71
2024/01/21 06:34:43;;;;;;;;;;;;;;;0.85;92.88;101171.25;3150851;28;19924;-66
2024/01/21 06:36:14;;;;;;;;;;;;;;;0.86;92.82;101175.56;3151194;28;19936;-66
2024/01/21 06:37:45;;;;;;;;;;;;;;;0.86;92.74;101171.28;3157346;28;20329;-67
2024/01/21 06:39:16;;;;;;;;;;;;;;;0.88;92.82;101177.28;3158850;28;20362;-66
2024/01/21 06:40:48;;;;;;;;;;;;;;;0.93;92.72;101177.38;3158664;28;19934;-67
2024/01/21 06:42:20;;;;;;;;;;;;;;;0.97;92.80;101180.84;3158267;28;19934;-66
2024/01/21 06:43:52;;;;;;;;;;;;;;;1.00;92.53;101179.19;3158093;28;19973;-65
2024/01/21 06:45:24;;;;;;;;;;;;;;;1.03;92.52;101178.38;3157929;28;19939;-67
2024/01/21 06:46:54;;;;;;;;;;;;;;;1.05;92.46;101182.69;3155012;28;19928;-66
2024/01/21 06:48:26;;;;;;;;;;;;;;;1.09;92.37;101191.28;3158271;28;19931;-66
2024/01/21 06:49:56;;;;;;;;;;;;;;;1.12;92.30;101192.22;3158268;28;19924;-68
2024/01/21 06:51:34;;;;;;;;;;;;;;;1.13;92.18;101187.97;3155707;28;19935;-64
2024/01/21 06:53:05;;;;;;;;;;;;;;;1.15;92.04;101188.81;3156737;28;19925;-69
2024/01/21 06:54:36;;;;;;;;;;;;;;;1.16;92.00;101195.69;3147514;28;19928;-68
2024/01/21 06:56:08;;;;;;;;;;;;;;;1.16;91.83;101200.84;3150736;28;20538;-68
2024/01/21 06:57:41;;;;;;;;;;;;;;;1.18;91.93;101203.41;3156707;28;19928;-68
2024/01/21 06:59:11;;;;;;;;;;;;;;;1.18;91.66;101196.56;3156002;28;19935;-68
2024/01/21 07:00:43;;;;;;;;;;;;;;;1.19;91.61;101198.31;3155895;28;19928;-68
2024/01/21 07:02:13;;;;;;;;;;;;;;;1.21;91.60;101193.19;3155816;28;19928;-70
2024/01/21 07:03:45;;;;;;;;;;;;;;;1.22;91.55;101202.63;3156172;28;19984;-71
2024/01/21 07:05:16;;;;;;;;;;;;;;;1.22;91.47;101198.34;3155925;28;19924;-69
2024/01/21 07:08:25;;;;;;;;;;;;;;;1.26;91.24;101206.97;3121585;28;19929;-66
2024/01/21 07:09:56;;;;;;;;;;;;;;;1.29;91.24;101210.44;3132978;28;20588;-67
2024/01/21 07:11:27;;;;;;;;;;;;;;;1.32;91.23;101210.47;3124594;28;19928;-67
2024/01/21 07:12:59;;;;;;;;;;;;;;;1.34;90.97;101223.34;3128914;28;19924;-69
2024/01/21 07:14:34;;;;;;;;;;;;;;;1.37;91.16;101213.13;3132727;28;19972;-73
2024/01/21 07:16:05;;;;;;;;;;;;;;;1.40;91.03;101220.88;3131798;28;20015;-72
2024/01/21 07:17:36;;;;;;;;;;;;;;;1.42;90.93;101226.91;3126524;28;20313;-72
2024/01/21 07:19:07;;;;;;;;;;;;;;;1.45;90.88;101218.34;3129023;28;19931;-66
2024/01/21 07:20:38;;;;;;;;;;;;;;;1.49;90.93;101225.28;3132741;28;19924;-69
2024/01/21 07:22:09;;;;;;;;;;;;;;;1.51;90.71;101224.47;3130028;28;19933;-71
2024/01/21 07:23:40;;;;;;;;;;;;;;;1.53;90.58;101222.75;3122891;28;19952;-70
2024/01/21 07:25:14;;;;;;;;;;;;;;;1.56;90.62;101216.81;3128625;28;19925;-70
2024/01/21 07:26:45;;;;;;;;;;;;;;;1.61;90.39;101222.03;3132285;28;19936;-69
2024/01/21 07:28:17;;;;;;;;;;;;;;;1.64;90.32;101229.78;3122636;28;19932;-69
2024/01/21 07:29:49;;;;;;;;;;;;;;;1.66;90.20;101230.66;3124248;28;19928;-68
2024/01/21 07:31:20;;;;;;;;;;;;;;;1.68;90.07;101226.41;3130767;28;19932;-68
2024/01/21 07:32:51;;;;;;;;;;;;;;;1.71;89.97;101224.72;3126132;28;19933;-70
2024/01/21 07:34:22;;;;;;;;;;;;;;;1.75;89.95;101230.78;3124580;28;19941;-65
2024/01/21 07:35:53;;;;;;;;;;;;;;;1.78;89.79;101235.97;3131992;28;20326;-67
2024/01/21 07:37:24;;;;;;;;;;;;;;;1.80;89.78;101232.59;3132934;28;19929;-67
2024/01/21 07:38:55;;;;;;;;;;;;;;;1.86;89.63;101244.63;3133805;28;19975;-67
2024/01/21 07:40:27;;;;;;;;;;;;;;;1.88;89.62;101234.38;3131544;28;19925;-69
2024/01/21 07:41:58;;;;;;;;;;;;;;;1.91;89.56;101245.56;3132271;28;20017;-68
2024/01/21 07:43:30;;;;;;;;;;;;;;;2.00;89.99;101237.97;3132572;28;19993;-69
2024/01/21 07:45:02;;;;;;;;;;;;;;;2.15;89.88;101249.28;3131575;28;19932;-69
2024/01/21 07:46:34;;;;;;;;;;;;;;;2.26;89.96;101248.56;3131449;28;19948;-68
2024/01/21 07:48:05;;;;;;;;;;;;;;;2.43;89.75;101243.63;3131981;28;20004;-71
2024/01/21 07:49:37;;;;;;;;;;;;;;;2.62;89.30;101247.25;3128737;28;19985;-64
2024/01/21 07:51:07;;;;;;;;;;;;;;;2.85;88.96;101256.94;3126661;28;19924;-65
2024/01/21 07:52:39;;;;;;;;;;;;;;;3.09;88.28;101246.00;3132494;28;19936;-66
2024/01/21 07:54:09;;;;;;;;;;;;;;;3.36;87.77;101251.34;3132693;28;19936;-65
2024/01/21 07:55:41;;;;;;;;;;;;;;;3.60;86.93;101248.09;3132185;28;19929;-68
2024/01/21 07:57:12;;;;;;;;;;;;;;;3.76;86.41;101246.50;3132567;28;19925;-67